sensor_id;sensor_type;location;lat;lon;timestamp;P1;durP1;ratioP1;P2;durP2;ratioP2
2934;SDS011;2462;51.456;7.248;2024-02-15T00:01:46;2.37;;;2.20;;
2934;SDS011;2462;51.456;7.248;2024-02-15T00:04:12;2.10;;;2.00;;
2934;SDS011;2462;51.456;7.248;2024-02-15T00:06:38;2.67;;;2.47;;
2934;SDS011;2462;51.456;7.248;2024-02-15T00:09:04;2.77;;;2.57;;
2934;SDS011;2462;51.456;7.248;2024-02-15T00:11:30;3.40;;;3.10;;
2934;SDS011;2462;51.456;7.248;2024-02-15T00:13:57;2.73;;;2.27;;
2934;SDS011;2462;51.456;7.248;2024-02-15T00:16:23;2.40;;;2.20;;
2934;SDS011;2462;51.456;7.248;2024-02-15T00:18:49;2.97;;;2.77;;
2934;SDS011;2462;51.456;7.248;2024-02-15T00:21:15;2.37;;;2.20;;
2934;SDS011;2462;51.456;7.248;2024-02-15T00:23:41;2.80;;;2.60;;
2934;SDS011;2462;51.456;7.248;2024-02-15T00:26:07;3.60;;;2.23;;
2934;SDS011;2462;51.456;7.248;2024-02-15T00:28:36;2.40;;;2.27;;
2934;SDS011;2462;51.456;7.248;2024-02-15T00:31:02;2.30;;;2.10;;
2934;SDS011;2462;51.456;7.248;2024-02-15T00:33:28;2.63;;;2.43;;
2934;SDS011;2462;51.456;7.248;2024-02-15T00:35:54;2.00;;;1.90;;
2934;SDS011;2462;51.456;7.248;2024-02-15T00:38:20;2.70;;;2.50;;
2934;SDS011;2462;51.456;7.248;2024-02-15T00:40:46;2.33;;;2.20;;
2934;SDS011;2462;51.456;7.248;2024-02-15T00:43:12;2.73;;;2.53;;
2934;SDS011;2462;51.456;7.248;2024-02-15T00:45:39;2.57;;;2.30;;
2934;SDS011;2462;51.456;7.248;2024-02-15T00:48:05;2.40;;;2.20;;
2934;SDS011;2462;51.456;7.248;2024-02-15T00:50:31;2.33;;;2.20;;
2934;SDS011;2462;51.456;7.248;2024-02-15T00:52:57;2.00;;;1.90;;
2934;SDS011;2462;51.456;7.248;2024-02-15T00:55:23;2.47;;;2.27;;
2934;SDS011;2462;51.456;7.248;2024-02-15T00:57:49;2.70;;;2.10;;
2934;SDS011;2462;51.456;7.248;2024-02-15T01:00:15;2.30;;;2.10;;
2934;SDS011;2462;51.456;7.248;2024-02-15T01:02:41;2.97;;;2.67;;
2934;SDS011;2462;51.456;7.248;2024-02-15T01:05:07;2.53;;;2.33;;
2934;SDS011;2462;51.456;7.248;2024-02-15T01:07:34;2.47;;;2.03;;
2934;SDS011;2462;51.456;7.248;2024-02-15T01:10:01;3.17;;;2.33;;
2934;SDS011;2462;51.456;7.248;2024-02-15T01:12:28;2.17;;;2.03;;
2934;SDS011;2462;51.456;7.248;2024-02-15T01:14:54;2.17;;;2.00;;
2934;SDS011;2462;51.456;7.248;2024-02-15T01:17:21;1.90;;;1.80;;
2934;SDS011;2462;51.456;7.248;2024-02-15T01:19:47;2.60;;;2.40;;
2934;SDS011;2462;51.456;7.248;2024-02-15T01:22:13;2.13;;;1.93;;
2934;SDS011;2462;51.456;7.248;2024-02-15T01:24:39;1.83;;;1.73;;
2934;SDS011;2462;51.456;7.248;2024-02-15T01:27:05;2.47;;;2.27;;
2934;SDS011;2462;51.456;7.248;2024-02-15T01:29:32;2.23;;;2.03;;
2934;SDS011;2462;51.456;7.248;2024-02-15T01:31:58;2.30;;;2.10;;
2934;SDS011;2462;51.456;7.248;2024-02-15T01:34:24;2.70;;;2.50;;
2934;SDS011;2462;51.456;7.248;2024-02-15T01:36:50;2.40;;;2.20;;
2934;SDS011;2462;51.456;7.248;2024-02-15T01:39:16;2.13;;;1.93;;
2934;SDS011;2462;51.456;7.248;2024-02-15T01:41:46;2.00;;;1.90;;
2934;SDS011;2462;51.456;7.248;2024-02-15T01:44:13;3.13;;;2.93;;
2934;SDS011;2462;51.456;7.248;2024-02-15T01:46:39;2.57;;;1.97;;
2934;SDS011;2462;51.456;7.248;2024-02-15T01:49:05;2.00;;;1.90;;
2934;SDS011;2462;51.456;7.248;2024-02-15T01:51:32;2.23;;;2.03;;
2934;SDS011;2462;51.456;7.248;2024-02-15T01:54:00;2.43;;;2.23;;
2934;SDS011;2462;51.456;7.248;2024-02-15T01:56:27;2.37;;;2.20;;
2934;SDS011;2462;51.456;7.248;2024-02-15T01:58:53;2.40;;;2.20;;
2934;SDS011;2462;51.456;7.248;2024-02-15T02:01:19;2.50;;;2.30;;
2934;SDS011;2462;51.456;7.248;2024-02-15T02:03:46;2.17;;;1.97;;
2934;SDS011;2462;51.456;7.248;2024-02-15T02:06:12;2.77;;;2.33;;
2934;SDS011;2462;51.456;7.248;2024-02-15T02:08:38;2.53;;;2.33;;
2934;SDS011;2462;51.456;7.248;2024-02-15T02:11:04;2.43;;;2.10;;
2934;SDS011;2462;51.456;7.248;2024-02-15T02:13:30;1.77;;;1.67;;
2934;SDS011;2462;51.456;7.248;2024-02-15T02:15:56;2.83;;;2.50;;
2934;SDS011;2462;51.456;7.248;2024-02-15T02:18:24;3.43;;;2.60;;
2934;SDS011;2462;51.456;7.248;2024-02-15T02:20:50;2.20;;;2.07;;
2934;SDS011;2462;51.456;7.248;2024-02-15T02:23:17;3.50;;;2.10;;
2934;SDS011;2462;51.456;7.248;2024-02-15T02:25:43;2.53;;;2.20;;
2934;SDS011;2462;51.456;7.248;2024-02-15T02:28:11;1.70;;;1.60;;
2934;SDS011;2462;51.456;7.248;2024-02-15T02:30:37;2.63;;;2.43;;
2934;SDS011;2462;51.456;7.248;2024-02-15T02:33:10;3.23;;;2.43;;
2934;SDS011;2462;51.456;7.248;2024-02-15T02:35:36;2.07;;;1.87;;
2934;SDS011;2462;51.456;7.248;2024-02-15T02:38:02;2.47;;;2.27;;
2934;SDS011;2462;51.456;7.248;2024-02-15T02:40:28;2.43;;;2.23;;
2934;SDS011;2462;51.456;7.248;2024-02-15T02:42:54;2.40;;;2.20;;
2934;SDS011;2462;51.456;7.248;2024-02-15T02:45:25;2.30;;;2.10;;
2934;SDS011;2462;51.456;7.248;2024-02-15T02:47:51;1.87;;;1.57;;
2934;SDS011;2462;51.456;7.248;2024-02-15T02:50:17;2.40;;;2.20;;
2934;SDS011;2462;51.456;7.248;2024-02-15T02:52:44;1.83;;;1.73;;
2934;SDS011;2462;51.456;7.248;2024-02-15T02:55:10;1.93;;;1.83;;
2934;SDS011;2462;51.456;7.248;2024-02-15T02:57:37;2.27;;;2.07;;
2934;SDS011;2462;51.456;7.248;2024-02-15T03:00:03;2.20;;;2.00;;
2934;SDS011;2462;51.456;7.248;2024-02-15T03:02:29;2.23;;;2.03;;
2934;SDS011;2462;51.456;7.248;2024-02-15T03:04:56;2.50;;;2.30;;
2934;SDS011;2462;51.456;7.248;2024-02-15T03:07:24;3.20;;;2.10;;
2934;SDS011;2462;51.456;7.248;2024-02-15T03:09:51;1.70;;;1.60;;
2934;SDS011;2462;51.456;7.248;2024-02-15T03:12:16;2.20;;;1.93;;
2934;SDS011;2462;51.456;7.248;2024-02-15T03:14:43;2.13;;;1.93;;
2934;SDS011;2462;51.456;7.248;2024-02-15T03:17:10;1.83;;;1.67;;
2934;SDS011;2462;51.456;7.248;2024-02-15T03:19:36;3.80;;;2.50;;
2934;SDS011;2462;51.456;7.248;2024-02-15T03:22:02;2.30;;;2.10;;
2934;SDS011;2462;51.456;7.248;2024-02-15T03:24:28;2.20;;;2.00;;
2934;SDS011;2462;51.456;7.248;2024-02-15T03:26:54;1.80;;;1.70;;
2934;SDS011;2462;51.456;7.248;2024-02-15T03:29:20;2.10;;;1.90;;
2934;SDS011;2462;51.456;7.248;2024-02-15T03:31:47;2.00;;;1.70;;
2934;SDS011;2462;51.456;7.248;2024-02-15T03:34:14;2.50;;;2.30;;
2934;SDS011;2462;51.456;7.248;2024-02-15T03:36:40;2.33;;;1.80;;
2934;SDS011;2462;51.456;7.248;2024-02-15T03:39:06;2.20;;;1.97;;
2934;SDS011;2462;51.456;7.248;2024-02-15T03:41:33;2.67;;;2.00;;
2934;SDS011;2462;51.456;7.248;2024-02-15T03:43:59;1.83;;;1.73;;
2934;SDS011;2462;51.456;7.248;2024-02-15T03:46:25;2.40;;;2.20;;
2934;SDS011;2462;51.456;7.248;2024-02-15T03:48:52;1.87;;;1.77;;
2934;SDS011;2462;51.456;7.248;2024-02-15T03:51:19;1.83;;;1.60;;
2934;SDS011;2462;51.456;7.248;2024-02-15T03:53:45;1.80;;;1.70;;
2934;SDS011;2462;51.456;7.248;2024-02-15T03:56:13;1.97;;;1.80;;
2934;SDS011;2462;51.456;7.248;2024-02-15T03:58:39;2.03;;;1.60;;
2934;SDS011;2462;51.456;7.248;2024-02-15T04:01:05;3.67;;;2.10;;
2934;SDS011;2462;51.456;7.248;2024-02-15T04:03:32;3.00;;;2.37;;
2934;SDS011;2462;51.456;7.248;2024-02-15T04:05:59;1.77;;;1.67;;
2934;SDS011;2462;51.456;7.248;2024-02-15T04:08:25;2.30;;;2.10;;
2934;SDS011;2462;51.456;7.248;2024-02-15T04:10:51;2.00;;;1.90;;
2934;SDS011;2462;51.456;7.248;2024-02-15T04:13:18;2.10;;;1.90;;
2934;SDS011;2462;51.456;7.248;2024-02-15T04:15:44;2.00;;;1.80;;
2934;SDS011;2462;51.456;7.248;2024-02-15T04:18:12;2.20;;;2.10;;
2934;SDS011;2462;51.456;7.248;2024-02-15T04:20:39;1.90;;;1.80;;
2934;SDS011;2462;51.456;7.248;2024-02-15T04:23:10;2.27;;;2.10;;
2934;SDS011;2462;51.456;7.248;2024-02-15T04:25:36;2.50;;;2.10;;
2934;SDS011;2462;51.456;7.248;2024-02-15T04:28:02;1.80;;;1.70;;
2934;SDS011;2462;51.456;7.248;2024-02-15T04:30:29;1.80;;;1.70;;
2934;SDS011;2462;51.456;7.248;2024-02-15T04:32:55;2.20;;;2.00;;
2934;SDS011;2462;51.456;7.248;2024-02-15T04:35:21;1.83;;;1.73;;
2934;SDS011;2462;51.456;7.248;2024-02-15T04:37:47;1.67;;;1.57;;
2934;SDS011;2462;51.456;7.248;2024-02-15T04:40:14;3.00;;;2.60;;
2934;SDS011;2462;51.456;7.248;2024-02-15T04:42:43;1.80;;;1.70;;
2934;SDS011;2462;51.456;7.248;2024-02-15T04:45:12;1.67;;;1.57;;
2934;SDS011;2462;51.456;7.248;2024-02-15T04:47:38;1.70;;;1.60;;
2934;SDS011;2462;51.456;7.248;2024-02-15T04:50:08;2.20;;;2.00;;
2934;SDS011;2462;51.456;7.248;2024-02-15T04:52:34;1.77;;;1.63;;
2934;SDS011;2462;51.456;7.248;2024-02-15T04:55:01;2.23;;;1.67;;
2934;SDS011;2462;51.456;7.248;2024-02-15T04:57:29;2.00;;;1.73;;
2934;SDS011;2462;51.456;7.248;2024-02-15T04:59:55;1.70;;;1.60;;
2934;SDS011;2462;51.456;7.248;2024-02-15T05:02:21;3.20;;;1.50;;
2934;SDS011;2462;51.456;7.248;2024-02-15T05:04:49;2.13;;;1.93;;
2934;SDS011;2462;51.456;7.248;2024-02-15T05:07:20;1.60;;;1.50;;
2934;SDS011;2462;51.456;7.248;2024-02-15T05:09:47;1.60;;;1.50;;
2934;SDS011;2462;51.456;7.248;2024-02-15T05:12:21;1.80;;;1.70;;
2934;SDS011;2462;51.456;7.248;2024-02-15T05:14:48;2.60;;;1.70;;
2934;SDS011;2462;51.456;7.248;2024-02-15T05:17:14;2.10;;;1.40;;
2934;SDS011;2462;51.456;7.248;2024-02-15T05:19:43;2.47;;;2.00;;
2934;SDS011;2462;51.456;7.248;2024-02-15T05:22:09;4.10;;;1.50;;
2934;SDS011;2462;51.456;7.248;2024-02-15T05:24:36;1.60;;;1.50;;
2934;SDS011;2462;51.456;7.248;2024-02-15T05:27:03;2.03;;;1.40;;
2934;SDS011;2462;51.456;7.248;2024-02-15T05:29:29;1.73;;;1.53;;
2934;SDS011;2462;51.456;7.248;2024-02-15T05:31:59;1.77;;;1.50;;
2934;SDS011;2462;51.456;7.248;2024-02-15T05:34:25;1.60;;;1.50;;
2934;SDS011;2462;51.456;7.248;2024-02-15T05:36:51;1.80;;;1.70;;
2934;SDS011;2462;51.456;7.248;2024-02-15T05:39:17;1.60;;;1.50;;
2934;SDS011;2462;51.456;7.248;2024-02-15T05:41:46;1.50;;;1.40;;
2934;SDS011;2462;51.456;7.248;2024-02-15T05:44:12;2.00;;;1.63;;
2934;SDS011;2462;51.456;7.248;2024-02-15T05:46:43;1.83;;;1.53;;
2934;SDS011;2462;51.456;7.248;2024-02-15T05:49:09;1.60;;;1.50;;
2934;SDS011;2462;51.456;7.248;2024-02-15T05:51:41;1.50;;;1.40;;
2934;SDS011;2462;51.456;7.248;2024-02-15T05:54:07;1.77;;;1.67;;
2934;SDS011;2462;51.456;7.248;2024-02-15T05:56:33;1.77;;;1.40;;
2934;SDS011;2462;51.456;7.248;2024-02-15T05:58:59;1.73;;;1.30;;
2934;SDS011;2462;51.456;7.248;2024-02-15T06:01:35;2.63;;;1.73;;
2934;SDS011;2462;51.456;7.248;2024-02-15T06:04:01;1.40;;;1.30;;
2934;SDS011;2462;51.456;7.248;2024-02-15T06:06:31;1.70;;;1.57;;
2934;SDS011;2462;51.456;7.248;2024-02-15T06:08:58;1.50;;;1.40;;
2934;SDS011;2462;51.456;7.248;2024-02-15T06:11:25;1.40;;;1.30;;
2934;SDS011;2462;51.456;7.248;2024-02-15T06:13:51;1.60;;;1.50;;
2934;SDS011;2462;51.456;7.248;2024-02-15T06:16:17;1.30;;;1.20;;
2934;SDS011;2462;51.456;7.248;2024-02-15T06:18:43;2.00;;;1.70;;
2934;SDS011;2462;51.456;7.248;2024-02-15T06:21:09;1.67;;;1.57;;
2934;SDS011;2462;51.456;7.248;2024-02-15T06:23:35;1.77;;;1.50;;
2934;SDS011;2462;51.456;7.248;2024-02-15T06:26:02;2.03;;;1.50;;
2934;SDS011;2462;51.456;7.248;2024-02-15T06:28:28;2.47;;;1.67;;
2934;SDS011;2462;51.456;7.248;2024-02-15T06:31:13;2.40;;;1.60;;
2934;SDS011;2462;51.456;7.248;2024-02-15T06:34:09;1.70;;;1.60;;
2934;SDS011;2462;51.456;7.248;2024-02-15T06:37:07;1.60;;;1.47;;
2934;SDS011;2462;51.456;7.248;2024-02-15T06:39:52;1.60;;;1.50;;
2934;SDS011;2462;51.456;7.248;2024-02-15T06:42:18;1.43;;;1.33;;
2934;SDS011;2462;51.456;7.248;2024-02-15T06:44:45;4.83;;;1.30;;
2934;SDS011;2462;51.456;7.248;2024-02-15T06:47:11;1.80;;;1.70;;
2934;SDS011;2462;51.456;7.248;2024-02-15T06:49:40;1.80;;;1.50;;
2934;SDS011;2462;51.456;7.248;2024-02-15T06:52:06;4.03;;;1.33;;
2934;SDS011;2462;51.456;7.248;2024-02-15T06:54:36;2.23;;;2.03;;
2934;SDS011;2462;51.456;7.248;2024-02-15T06:57:03;1.47;;;1.17;;
2934;SDS011;2462;51.456;7.248;2024-02-15T06:59:29;2.63;;;1.80;;
2934;SDS011;2462;51.456;7.248;2024-02-15T07:01:57;2.20;;;1.27;;
2934;SDS011;2462;51.456;7.248;2024-02-15T07:04:23;1.40;;;1.30;;
2934;SDS011;2462;51.456;7.248;2024-02-15T07:06:50;1.60;;;1.40;;
2934;SDS011;2462;51.456;7.248;2024-02-15T07:09:17;3.93;;;1.43;;
2934;SDS011;2462;51.456;7.248;2024-02-15T07:11:44;1.70;;;1.53;;
2934;SDS011;2462;51.456;7.248;2024-02-15T07:14:11;1.67;;;1.50;;
2934;SDS011;2462;51.456;7.248;2024-02-15T07:16:37;1.30;;;1.20;;
2934;SDS011;2462;51.456;7.248;2024-02-15T07:19:03;1.50;;;1.40;;
2934;SDS011;2462;51.456;7.248;2024-02-15T07:21:30;1.60;;;1.50;;
2934;SDS011;2462;51.456;7.248;2024-02-15T07:23:57;1.70;;;1.40;;
2934;SDS011;2462;51.456;7.248;2024-02-15T07:26:24;1.27;;;1.17;;
2934;SDS011;2462;51.456;7.248;2024-02-15T07:28:51;1.60;;;1.50;;
2934;SDS011;2462;51.456;7.248;2024-02-15T07:31:18;1.13;;;1.03;;
2934;SDS011;2462;51.456;7.248;2024-02-15T07:33:44;2.33;;;1.40;;
2934;SDS011;2462;51.456;7.248;2024-02-15T07:36:10;1.60;;;1.50;;
2934;SDS011;2462;51.456;7.248;2024-02-15T07:38:38;1.67;;;1.43;;
2934;SDS011;2462;51.456;7.248;2024-02-15T07:41:04;1.60;;;1.07;;
2934;SDS011;2462;51.456;7.248;2024-02-15T07:43:30;1.70;;;1.60;;
2934;SDS011;2462;51.456;7.248;2024-02-15T07:45:56;1.50;;;1.37;;
2934;SDS011;2462;51.456;7.248;2024-02-15T07:48:22;1.40;;;1.30;;
2934;SDS011;2462;51.456;7.248;2024-02-15T07:50:48;2.80;;;1.67;;
2934;SDS011;2462;51.456;7.248;2024-02-15T07:53:14;2.07;;;1.70;;
2934;SDS011;2462;51.456;7.248;2024-02-15T07:55:40;1.43;;;1.33;;
2934;SDS011;2462;51.456;7.248;2024-02-15T07:58:07;1.83;;;1.60;;
2934;SDS011;2462;51.456;7.248;2024-02-15T08:00:33;1.43;;;1.30;;
2934;SDS011;2462;51.456;7.248;2024-02-15T08:03:00;1.40;;;1.30;;
2934;SDS011;2462;51.456;7.248;2024-02-15T08:05:26;1.70;;;1.60;;
2934;SDS011;2462;51.456;7.248;2024-02-15T08:07:52;3.13;;;1.70;;
2934;SDS011;2462;51.456;7.248;2024-02-15T08:10:22;2.00;;;1.60;;
2934;SDS011;2462;51.456;7.248;2024-02-15T08:12:48;3.53;;;1.57;;
2934;SDS011;2462;51.456;7.248;2024-02-15T08:15:17;5.63;;;1.67;;
2934;SDS011;2462;51.456;7.248;2024-02-15T08:17:44;4.60;;;1.27;;
2934;SDS011;2462;51.456;7.248;2024-02-15T08:20:13;3.30;;;1.60;;
2934;SDS011;2462;51.456;7.248;2024-02-15T08:22:40;1.63;;;1.13;;
2934;SDS011;2462;51.456;7.248;2024-02-15T08:27:35;5.07;;;2.50;;
2934;SDS011;2462;51.456;7.248;2024-02-15T08:30:05;2.57;;;2.00;;
2934;SDS011;2462;51.456;7.248;2024-02-15T08:32:33;2.50;;;1.60;;
2934;SDS011;2462;51.456;7.248;2024-02-15T08:34:59;3.60;;;1.80;;
2934;SDS011;2462;51.456;7.248;2024-02-15T08:37:25;2.13;;;1.53;;
2934;SDS011;2462;51.456;7.248;2024-02-15T08:39:51;2.37;;;1.80;;
2934;SDS011;2462;51.456;7.248;2024-02-15T08:42:17;3.63;;;1.53;;
2934;SDS011;2462;51.456;7.248;2024-02-15T08:44:47;2.10;;;1.80;;
2934;SDS011;2462;51.456;7.248;2024-02-15T08:47:13;1.63;;;1.40;;
2934;SDS011;2462;51.456;7.248;2024-02-15T08:49:39;2.23;;;1.63;;
2934;SDS011;2462;51.456;7.248;2024-02-15T08:52:06;2.90;;;1.60;;
2934;SDS011;2462;51.456;7.248;2024-02-15T08:54:32;1.97;;;1.80;;
2934;SDS011;2462;51.456;7.248;2024-02-15T08:56:58;1.60;;;1.50;;
2934;SDS011;2462;51.456;7.248;2024-02-15T08:59:26;1.67;;;1.57;;
2934;SDS011;2462;51.456;7.248;2024-02-15T09:01:53;1.70;;;1.60;;
2934;SDS011;2462;51.456;7.248;2024-02-15T09:04:19;2.70;;;1.73;;
2934;SDS011;2462;51.456;7.248;2024-02-15T09:06:48;2.40;;;1.40;;
2934;SDS011;2462;51.456;7.248;2024-02-15T09:09:14;2.97;;;1.50;;
2934;SDS011;2462;51.456;7.248;2024-02-15T09:11:40;3.13;;;2.00;;
2934;SDS011;2462;51.456;7.248;2024-02-15T09:14:06;2.40;;;1.33;;
2934;SDS011;2462;51.456;7.248;2024-02-15T09:16:35;1.57;;;1.47;;
2934;SDS011;2462;51.456;7.248;2024-02-15T09:19:01;1.73;;;1.30;;
2934;SDS011;2462;51.456;7.248;2024-02-15T09:21:27;3.13;;;1.80;;
2934;SDS011;2462;51.456;7.248;2024-02-15T09:23:54;3.57;;;1.70;;
2934;SDS011;2462;51.456;7.248;2024-02-15T09:26:21;1.50;;;1.40;;
2934;SDS011;2462;51.456;7.248;2024-02-15T09:28:47;2.60;;;1.43;;
2934;SDS011;2462;51.456;7.248;2024-02-15T09:31:13;2.13;;;1.57;;
2934;SDS011;2462;51.456;7.248;2024-02-15T09:33:39;2.60;;;1.90;;
2934;SDS011;2462;51.456;7.248;2024-02-15T09:36:05;1.60;;;1.30;;
2934;SDS011;2462;51.456;7.248;2024-02-15T09:38:31;1.93;;;1.80;;
2934;SDS011;2462;51.456;7.248;2024-02-15T09:40:57;2.03;;;1.47;;
2934;SDS011;2462;51.456;7.248;2024-02-15T09:43:23;1.63;;;1.30;;
2934;SDS011;2462;51.456;7.248;2024-02-15T09:45:51;5.23;;;1.77;;
2934;SDS011;2462;51.456;7.248;2024-02-15T09:48:18;2.17;;;1.50;;
2934;SDS011;2462;51.456;7.248;2024-02-15T09:50:46;2.33;;;1.60;;
2934;SDS011;2462;51.456;7.248;2024-02-15T09:53:13;5.67;;;2.07;;
2934;SDS011;2462;51.456;7.248;2024-02-15T09:55:40;7.53;;;1.97;;
2934;SDS011;2462;51.456;7.248;2024-02-15T09:58:09;3.40;;;2.00;;
2934;SDS011;2462;51.456;7.248;2024-02-15T10:00:37;3.73;;;1.87;;
2934;SDS011;2462;51.456;7.248;2024-02-15T10:03:05;2.43;;;1.60;;
2934;SDS011;2462;51.456;7.248;2024-02-15T10:05:32;3.60;;;1.40;;
2934;SDS011;2462;51.456;7.248;2024-02-15T10:07:58;5.57;;;1.77;;
2934;SDS011;2462;51.456;7.248;2024-02-15T10:10:26;8.30;;;2.33;;
2934;SDS011;2462;51.456;7.248;2024-02-15T10:12:53;4.27;;;2.17;;
2934;SDS011;2462;51.456;7.248;2024-02-15T10:15:35;4.73;;;2.20;;
2934;SDS011;2462;51.456;7.248;2024-02-15T10:18:05;3.50;;;1.47;;
2934;SDS011;2462;51.456;7.248;2024-02-15T10:20:33;11.93;;;2.00;;
2934;SDS011;2462;51.456;7.248;2024-02-15T10:25:26;5.10;;;1.70;;
2934;SDS011;2462;51.456;7.248;2024-02-15T10:28:02;2.87;;;1.50;;
2934;SDS011;2462;51.456;7.248;2024-02-15T10:30:31;4.50;;;1.77;;
2934;SDS011;2462;51.456;7.248;2024-02-15T10:32:57;2.60;;;1.63;;
2934;SDS011;2462;51.456;7.248;2024-02-15T10:35:23;3.40;;;1.80;;
2934;SDS011;2462;51.456;7.248;2024-02-15T10:37:52;4.90;;;2.20;;
2934;SDS011;2462;51.456;7.248;2024-02-15T10:40:30;4.17;;;1.73;;
2934;SDS011;2462;51.456;7.248;2024-02-15T10:42:56;2.57;;;1.43;;
2934;SDS011;2462;51.456;7.248;2024-02-15T10:45:23;2.13;;;1.53;;
2934;SDS011;2462;51.456;7.248;2024-02-15T10:47:50;2.83;;;2.00;;
2934;SDS011;2462;51.456;7.248;2024-02-15T10:50:17;3.47;;;1.67;;
2934;SDS011;2462;51.456;7.248;2024-02-15T10:52:44;1.87;;;1.27;;
2934;SDS011;2462;51.456;7.248;2024-02-15T10:55:14;2.03;;;1.47;;
2934;SDS011;2462;51.456;7.248;2024-02-15T10:57:44;2.70;;;2.13;;
2934;SDS011;2462;51.456;7.248;2024-02-15T11:00:12;3.20;;;1.87;;
2934;SDS011;2462;51.456;7.248;2024-02-15T11:05:14;1.30;;;1.20;;
2934;SDS011;2462;51.456;7.248;2024-02-15T11:07:46;2.63;;;1.40;;
2934;SDS011;2462;51.456;7.248;2024-02-15T11:10:12;3.07;;;1.30;;
2934;SDS011;2462;51.456;7.248;2024-02-15T11:12:42;2.43;;;1.73;;
2934;SDS011;2462;51.456;7.248;2024-02-15T11:15:08;4.07;;;1.83;;
2934;SDS011;2462;51.456;7.248;2024-02-15T11:20:05;1.80;;;1.37;;
2934;SDS011;2462;51.456;7.248;2024-02-15T11:22:39;1.93;;;1.57;;
2934;SDS011;2462;51.456;7.248;2024-02-15T11:25:07;2.87;;;1.57;;
2934;SDS011;2462;51.456;7.248;2024-02-15T11:27:41;1.50;;;1.40;;
2934;SDS011;2462;51.456;7.248;2024-02-15T11:30:07;2.07;;;1.40;;
2934;SDS011;2462;51.456;7.248;2024-02-15T11:32:46;2.27;;;1.57;;
2934;SDS011;2462;51.456;7.248;2024-02-15T11:35:23;4.20;;;1.30;;
2934;SDS011;2462;51.456;7.248;2024-02-15T11:40:16;1.50;;;1.37;;
2934;SDS011;2462;51.456;7.248;2024-02-15T11:42:42;2.67;;;1.80;;
2934;SDS011;2462;51.456;7.248;2024-02-15T11:45:09;1.73;;;1.60;;
2934;SDS011;2462;51.456;7.248;2024-02-15T11:47:38;3.70;;;1.83;;
2934;SDS011;2462;51.456;7.248;2024-02-15T11:50:08;1.53;;;1.40;;
2934;SDS011;2462;51.456;7.248;2024-02-15T11:52:37;1.30;;;1.00;;
2934;SDS011;2462;51.456;7.248;2024-02-15T11:55:05;2.17;;;1.50;;
2934;SDS011;2462;51.456;7.248;2024-02-15T11:57:34;2.20;;;1.30;;
2934;SDS011;2462;51.456;7.248;2024-02-15T12:00:24;1.70;;;1.53;;
2934;SDS011;2462;51.456;7.248;2024-02-15T12:03:09;4.10;;;1.57;;
2934;SDS011;2462;51.456;7.248;2024-02-15T12:05:54;1.73;;;1.27;;
2934;SDS011;2462;51.456;7.248;2024-02-15T12:08:39;1.67;;;1.40;;
2934;SDS011;2462;51.456;7.248;2024-02-15T12:11:23;1.70;;;1.30;;
2934;SDS011;2462;51.456;7.248;2024-02-15T12:14:12;1.57;;;1.40;;
2934;SDS011;2462;51.456;7.248;2024-02-15T12:17:06;2.80;;;1.73;;
2934;SDS011;2462;51.456;7.248;2024-02-15T12:19:51;1.77;;;1.30;;
2934;SDS011;2462;51.456;7.248;2024-02-15T12:22:31;4.20;;;1.10;;
2934;SDS011;2462;51.456;7.248;2024-02-15T12:24:59;2.37;;;1.20;;
2934;SDS011;2462;51.456;7.248;2024-02-15T12:27:25;1.70;;;1.30;;
2934;SDS011;2462;51.456;7.248;2024-02-15T12:29:55;2.17;;;1.20;;
2934;SDS011;2462;51.456;7.248;2024-02-15T12:32:23;1.37;;;1.10;;
2934;SDS011;2462;51.456;7.248;2024-02-15T12:34:49;5.20;;;1.37;;
2934;SDS011;2462;51.456;7.248;2024-02-15T12:37:17;1.97;;;1.30;;
2934;SDS011;2462;51.456;7.248;2024-02-15T12:39:43;1.63;;;1.43;;
2934;SDS011;2462;51.456;7.248;2024-02-15T12:42:09;2.03;;;1.10;;
2934;SDS011;2462;51.456;7.248;2024-02-15T12:44:41;2.03;;;1.60;;
2934;SDS011;2462;51.456;7.248;2024-02-15T12:47:16;1.30;;;1.10;;
2934;SDS011;2462;51.456;7.248;2024-02-15T12:49:42;2.73;;;1.30;;
2934;SDS011;2462;51.456;7.248;2024-02-15T12:57:39;2.37;;;0.87;;
2934;SDS011;2462;51.456;7.248;2024-02-15T13:00:07;1.10;;;0.80;;
2934;SDS011;2462;51.456;7.248;2024-02-15T13:02:37;1.50;;;1.30;;
2934;SDS011;2462;51.456;7.248;2024-02-15T13:05:04;1.83;;;1.53;;
2934;SDS011;2462;51.456;7.248;2024-02-15T13:07:30;1.77;;;1.10;;
2934;SDS011;2462;51.456;7.248;2024-02-15T13:09:56;1.60;;;1.50;;
2934;SDS011;2462;51.456;7.248;2024-02-15T13:12:22;1.97;;;1.10;;
2934;SDS011;2462;51.456;7.248;2024-02-15T13:14:48;3.97;;;1.40;;
2934;SDS011;2462;51.456;7.248;2024-02-15T13:17:15;1.50;;;1.07;;
2934;SDS011;2462;51.456;7.248;2024-02-15T13:19:45;1.63;;;1.00;;
2934;SDS011;2462;51.456;7.248;2024-02-15T13:22:14;1.60;;;1.30;;
2934;SDS011;2462;51.456;7.248;2024-02-15T13:24:40;3.10;;;1.03;;
2934;SDS011;2462;51.456;7.248;2024-02-15T13:27:06;1.83;;;1.00;;
2934;SDS011;2462;51.456;7.248;2024-02-15T13:29:35;2.73;;;1.63;;
2934;SDS011;2462;51.456;7.248;2024-02-15T13:32:01;2.03;;;1.40;;
2934;SDS011;2462;51.456;7.248;2024-02-15T13:34:27;2.03;;;1.30;;
2934;SDS011;2462;51.456;7.248;2024-02-15T13:36:52;2.80;;;1.10;;
2934;SDS011;2462;51.456;7.248;2024-02-15T13:39:20;1.97;;;1.30;;
2934;SDS011;2462;51.456;7.248;2024-02-15T13:41:46;1.70;;;1.20;;
2934;SDS011;2462;51.456;7.248;2024-02-15T13:44:12;1.83;;;1.30;;
2934;SDS011;2462;51.456;7.248;2024-02-15T13:46:39;1.73;;;1.10;;
2934;SDS011;2462;51.456;7.248;2024-02-15T13:49:07;1.50;;;0.90;;
2934;SDS011;2462;51.456;7.248;2024-02-15T13:51:33;1.30;;;1.03;;
2934;SDS011;2462;51.456;7.248;2024-02-15T13:53:59;1.30;;;1.20;;
2934;SDS011;2462;51.456;7.248;2024-02-15T13:56:25;4.00;;;1.33;;
2934;SDS011;2462;51.456;7.248;2024-02-15T13:58:51;3.07;;;1.30;;
2934;SDS011;2462;51.456;7.248;2024-02-15T14:01:17;5.50;;;1.30;;
2934;SDS011;2462;51.456;7.248;2024-02-15T14:03:43;6.53;;;1.70;;
2934;SDS011;2462;51.456;7.248;2024-02-15T14:06:10;4.20;;;1.20;;
2934;SDS011;2462;51.456;7.248;2024-02-15T14:08:36;1.13;;;1.00;;
2934;SDS011;2462;51.456;7.248;2024-02-15T14:11:02;2.07;;;1.30;;
2934;SDS011;2462;51.456;7.248;2024-02-15T14:13:30;1.80;;;1.27;;
2934;SDS011;2462;51.456;7.248;2024-02-15T14:15:56;2.30;;;1.37;;
2934;SDS011;2462;51.456;7.248;2024-02-15T14:18:23;1.47;;;1.00;;
2934;SDS011;2462;51.456;7.248;2024-02-15T14:20:49;4.07;;;1.50;;
2934;SDS011;2462;51.456;7.248;2024-02-15T14:23:15;7.13;;;1.37;;
2934;SDS011;2462;51.456;7.248;2024-02-15T14:25:42;1.60;;;1.30;;
2934;SDS011;2462;51.456;7.248;2024-02-15T14:28:08;1.83;;;1.30;;
2934;SDS011;2462;51.456;7.248;2024-02-15T14:30:34;1.97;;;1.30;;
2934;SDS011;2462;51.456;7.248;2024-02-15T14:33:19;1.60;;;1.10;;
2934;SDS011;2462;51.456;7.248;2024-02-15T14:35:47;2.43;;;1.30;;
2934;SDS011;2462;51.456;7.248;2024-02-15T14:38:14;3.53;;;1.13;;
2934;SDS011;2462;51.456;7.248;2024-02-15T14:40:42;1.53;;;1.27;;
2934;SDS011;2462;51.456;7.248;2024-02-15T14:43:09;1.73;;;1.10;;
2934;SDS011;2462;51.456;7.248;2024-02-15T14:45:38;1.40;;;1.03;;
2934;SDS011;2462;51.456;7.248;2024-02-15T14:48:05;1.20;;;1.10;;
2934;SDS011;2462;51.456;7.248;2024-02-15T14:50:34;2.57;;;1.10;;
2934;SDS011;2462;51.456;7.248;2024-02-15T14:53:00;3.20;;;1.40;;
2934;SDS011;2462;51.456;7.248;2024-02-15T14:55:26;2.87;;;1.37;;
2934;SDS011;2462;51.456;7.248;2024-02-15T14:57:54;1.50;;;1.10;;
2934;SDS011;2462;51.456;7.248;2024-02-15T15:00:20;1.60;;;0.93;;
2934;SDS011;2462;51.456;7.248;2024-02-15T15:02:48;1.33;;;1.10;;
2934;SDS011;2462;51.456;7.248;2024-02-15T15:05:14;2.17;;;1.10;;
2934;SDS011;2462;51.456;7.248;2024-02-15T15:07:59;2.70;;;1.10;;
2934;SDS011;2462;51.456;7.248;2024-02-15T15:10:44;1.73;;;1.10;;
2934;SDS011;2462;51.456;7.248;2024-02-15T15:13:30;1.80;;;1.10;;
2934;SDS011;2462;51.456;7.248;2024-02-15T15:15:56;1.40;;;1.07;;
2934;SDS011;2462;51.456;7.248;2024-02-15T15:18:22;5.83;;;1.23;;
2934;SDS011;2462;51.456;7.248;2024-02-15T15:20:48;1.67;;;1.30;;
2934;SDS011;2462;51.456;7.248;2024-02-15T15:23:14;1.77;;;1.00;;
2934;SDS011;2462;51.456;7.248;2024-02-15T15:25:41;1.87;;;1.10;;
2934;SDS011;2462;51.456;7.248;2024-02-15T15:28:07;4.47;;;1.13;;
2934;SDS011;2462;51.456;7.248;2024-02-15T15:30:33;1.53;;;1.27;;
2934;SDS011;2462;51.456;7.248;2024-02-15T15:32:59;1.23;;;1.10;;
2934;SDS011;2462;51.456;7.248;2024-02-15T15:35:26;2.53;;;1.10;;
2934;SDS011;2462;51.456;7.248;2024-02-15T15:37:53;2.43;;;1.30;;